Terminal Aerodrome Forecast
Issued by NWS

Home | Current Version | Previous Version | Text Only | Print | Product List | Glossary Off
Versions: 1 2 3 4 5 6 7 8 9 10 11 12 13 14 15 16 17 18 19

000
FTUS43 KGRB 241700
TAFATW
TAF
KATW 241727Z 2418/2518 14012KT P6SM BKN017
     FM242100 14010KT P6SM SCT020 SCT040
     FM250200 14005KT 6SM BR SCT100 BKN250
     FM250700 16003KT 2SM BR SCT009 BKN090
     FM251300 20006KT P6SM SCT015 BKN070=

USA.gov is the U.S. government's official web portal to all federal, state and local government web resources and services.